Time;durP1;ratioP1;P1;durP2;ratioP2;P2;SDS_P1;SDS_P2;PMS_P1;PMS_P2;Temp;Humidity;BMP_temperature;BMP_pressure;BME280_temperature;BME280_humidity;BME280_pressure;Samples;Min_cycle;Max_cycle;Signal;HPM_P1;HPM_P2
2021/07/20 00:01:34;;;;;;;9.25;3.45;;;;;;;16.95;90.06;101306.47;5020952;28;20521;-75
2021/07/20 00:04:00;;;;;;;6.70;3.33;;;;;;;16.93;90.27;101317.75;5023146;28;20033;-75
2021/07/20 00:06:25;;;;;;;5.88;3.28;;;;;;;16.83;90.81;101310.31;5030081;28;20037;-75
2021/07/20 00:08:51;;;;;;;9.10;3.28;;;;;;;16.83;90.50;101313.03;5022724;28;20080;-75
2021/07/20 00:11:16;;;;;;;6.63;3.60;;;;;;;16.95;90.20;101306.47;5020878;28;20087;-75
2021/07/20 00:13:42;;;;;;;8.40;3.70;;;;;;;16.91;90.58;101308.41;5011926;28;20087;-75
2021/07/20 00:16:08;;;;;;;9.05;4.20;;;;;;;16.89;90.57;101305.28;5045149;28;20037;-75
2021/07/20 00:18:35;;;;;;;9.18;3.72;;;;;;;16.97;90.51;101309.59;5031969;28;20037;-75
2021/07/20 00:21:04;;;;;;;14.73;3.97;;;;;;;16.84;90.74;101305.66;5021194;28;20030;-75
2021/07/20 00:23:30;;;;;;;6.75;3.85;;;;;;;16.90;90.79;101317.72;5029567;28;20038;-75
2021/07/20 00:25:56;;;;;;;7.30;3.60;;;;;;;16.88;90.18;101317.31;5028407;28;20475;-75
2021/07/20 00:28:24;;;;;;;9.38;4.13;;;;;;;16.88;89.93;101311.88;5012197;28;20040;-75
2021/07/20 00:30:50;;;;;;;6.63;3.60;;;;;;;16.71;90.83;101315.28;5021018;28;20443;-75
2021/07/20 00:33:16;;;;;;;7.95;3.60;;;;;;;16.70;91.12;101322.69;5028540;28;20037;-75
2021/07/20 00:35:43;;;;;;;7.45;4.03;;;;;;;16.67;91.15;101311.75;5033212;28;20049;-74
2021/07/20 00:38:11;;;;;;;7.18;3.58;;;;;;;16.71;91.49;101310.63;5026102;28;20033;-75
2021/07/20 00:40:42;;;;;;;6.28;3.55;;;;;;;16.68;91.84;101305.97;5024652;28;20038;-75
2021/07/20 00:43:08;;;;;;;7.32;3.50;;;;;;;16.76;91.54;101304.06;5030231;28;20029;-75
2021/07/20 00:45:35;;;;;;;6.63;3.60;;;;;;;16.71;91.52;101307.13;5020019;28;20037;-75
2021/07/20 00:48:01;;;;;;;10.98;3.67;;;;;;;16.65;91.19;101306.69;5024603;28;20029;-75
2021/07/20 00:50:30;;;;;;;6.13;3.42;;;;;;;16.68;91.45;101305.16;5029900;28;20060;-75
2021/07/20 00:52:56;;;;;;;6.78;3.67;;;;;;;16.70;92.04;101291.97;5027335;28;20085;-74
2021/07/20 00:55:22;;;;;;;9.30;4.00;;;;;;;16.69;92.12;101306.72;5018815;28;20045;-75
2021/07/20 00:57:48;;;;;;;9.82;4.13;;;;;;;16.64;92.48;101307.88;5028259;28;20036;-75
2021/07/20 01:00:19;;;;;;;7.70;4.03;;;;;;;16.59;91.92;101305.50;5029455;28;20111;-75
2021/07/20 01:02:50;;;;;;;7.80;4.43;;;;;;;16.53;92.36;101307.00;5022721;28;20026;-74
2021/07/20 01:05:19;;;;;;;10.77;3.90;;;;;;;16.52;92.25;101307.38;5017190;28;20036;-74
2021/07/20 01:07:47;;;;;;;9.82;4.50;;;;;;;16.52;92.36;101299.22;5010266;28;20036;-74
2021/07/20 01:10:15;;;;;;;12.20;4.55;;;;;;;16.48;91.87;101299.22;5026066;28;20108;-75
2021/07/20 01:12:44;;;;;;;11.93;4.32;;;;;;;16.47;92.38;101305.78;5031188;28;20041;-75
2021/07/20 01:15:12;;;;;;;6.50;4.28;;;;;;;16.46;92.00;101298.00;5031051;28;20022;-75
2021/07/20 01:17:39;;;;;;;7.78;3.88;;;;;;;16.40;92.84;101289.41;5027283;28;20034;-75
2021/07/20 01:20:12;;;;;;;9.23;4.65;;;;;;;16.27;93.21;101296.31;5011250;28;20053;-75
2021/07/20 01:22:41;;;;;;;11.07;4.38;;;;;;;16.35;92.90;101297.13;5031571;28;20087;-74
2021/07/20 01:25:12;;;;;;;8.93;4.25;;;;;;;16.42;92.70;101297.97;5032236;28;20021;-75
2021/07/20 01:27:45;;;;;;;9.77;4.65;;;;;;;16.43;92.89;101304.19;5010109;28;20044;-74
2021/07/20 01:30:12;;;;;;;10.23;3.83;;;;;;;16.38;92.57;101301.81;5028022;28;20029;-74
2021/07/20 01:32:39;;;;;;;8.98;4.20;;;;;;;16.42;92.54;101297.97;5027523;28;20041;-75
2021/07/20 01:35:06;;;;;;;7.10;3.85;;;;;;;16.27;93.34;101310.69;5031910;28;20053;-75
2021/07/20 01:37:36;;;;;;;6.25;3.83;;;;;;;16.26;93.68;101306.41;5024142;28;20452;-75
2021/07/20 01:40:04;;;;;;;6.13;3.72;;;;;;;16.31;93.72;101308.00;5029921;28;20025;-74
2021/07/20 01:42:31;;;;;;;5.32;3.58;;;;;;;16.33;93.63;101305.69;5032831;28;20171;-74
2021/07/20 01:44:57;;;;;;;7.30;3.60;;;;;;;16.26;93.27;101311.84;5029764;28;20123;-75
2021/07/20 01:47:27;;;;;;;6.47;3.65;;;;;;;16.25;93.52;101304.84;5027506;28;20140;-75
2021/07/20 01:49:56;;;;;;;6.07;3.60;;;;;;;16.05;94.51;101302.72;5021289;28;20034;-75
2021/07/20 01:52:24;;;;;;;5.70;3.70;;;;;;;16.08;94.31;101297.34;5021362;28;20030;-75
2021/07/20 01:54:50;;;;;;;8.63;3.67;;;;;;;16.12;94.57;101303.56;5025282;28;20017;-75
2021/07/20 01:57:17;;;;;;;7.47;4.05;;;;;;;16.20;94.39;101296.28;5025912;28;20188;-74
2021/07/20 02:00:04;;;;;;;7.05;4.10;;;;;;;16.28;95.21;101304.09;5030474;28;20052;-75
2021/07/20 02:03:11;;;;;;;7.82;4.10;;;;;;;16.34;95.42;101295.59;5032058;28;20044;-75
2021/07/20 02:08:40;;;;;;;8.15;4.13;;;;;;;16.30;96.68;101294.78;5027144;28;20486;-75
2021/07/20 02:11:10;;;;;;;10.18;4.13;;;;;;;16.38;96.37;101290.94;5030868;28;20044;-75
2021/07/20 02:14:08;;;;;;;6.88;4.03;;;;;;;16.44;96.08;101297.59;5026097;28;20030;-74
2021/07/20 02:17:01;;;;;;;9.48;4.78;;;;;;;16.53;95.37;101295.38;5026924;28;20064;-75
2021/07/20 02:19:35;;;;;;;9.25;4.43;;;;;;;16.63;95.30;101295.41;5026360;28;20036;-74
2021/07/20 02:22:18;;;;;;;6.88;4.18;;;;;;;16.62;95.47;101293.09;5025073;28;20069;-75
2021/07/20 02:24:49;;;;;;;10.65;4.75;;;;;;;16.68;95.18;101289.63;5030346;28;20068;-75
2021/07/20 02:27:18;;;;;;;7.55;3.80;;;;;;;16.71;94.22;101298.97;5025319;28;20084;-74
2021/07/20 02:30:03;;;;;;;6.68;4.28;;;;;;;16.62;94.42;101298.53;5013825;28;20498;-75
2021/07/20 02:32:30;;;;;;;8.23;4.40;;;;;;;16.66;93.40;101293.88;5026326;28;20048;-74
2021/07/20 02:35:00;;;;;;;8.18;4.03;;;;;;;16.55;94.50;101291.09;5029749;28;20405;-74
2021/07/20 02:37:34;;;;;;;11.02;4.35;;;;;;;16.44;94.91;101295.66;5024505;28;20030;-75
2021/07/20 02:40:04;;;;;;;6.55;3.70;;;;;;;16.44;94.86;101294.88;5022760;28;20137;-74
2021/07/20 02:42:32;;;;;;;7.13;3.90;;;;;;;16.38;94.89;101296.38;5011204;28;20036;-75
2021/07/20 02:44:59;;;;;;;8.23;4.03;;;;;;;16.32;94.48;101295.19;5030753;28;20037;-74
2021/07/20 02:47:26;;;;;;;9.35;4.30;;;;;;;16.30;94.82;101305.66;5025112;28;20343;-75
2021/07/20 02:49:53;;;;;;;10.52;4.63;;;;;;;16.25;95.23;101306.78;5022105;28;20048;-75
2021/07/20 02:52:21;;;;;;;5.50;3.72;;;;;;;16.27;95.10;101291.66;5026025;28;20029;-75
2021/07/20 02:54:47;;;;;;;5.50;3.97;;;;;;;16.32;94.97;101292.47;5029542;28;20494;-75
2021/07/20 02:57:16;;;;;;;10.90;3.90;;;;;;;16.30;94.99;101297.50;5024501;28;20450;-75
2021/07/20 02:59:47;;;;;;;12.73;4.22;;;;;;;16.23;95.12;101296.28;5020537;28;20041;-75
2021/07/20 03:02:20;;;;;;;9.30;3.95;;;;;;;16.10;95.65;101305.88;5014099;28;20095;-75
2021/07/20 03:04:46;;;;;;;5.90;3.97;;;;;;;16.12;95.82;101300.84;5022856;28;20041;-75
2021/07/20 03:07:20;;;;;;;7.95;4.10;;;;;;;16.15;95.32;101304.75;5021904;28;20083;-75
2021/07/20 03:09:51;;;;;;;11.32;4.28;;;;;;;16.09;95.68;101301.59;5018614;28;20084;-76
2021/07/20 03:12:20;;;;;;;;;;;;;;;15.93;96.33;101303.03;5008115;28;20045;-74
2021/07/20 03:14:51;;;;;;;10.07;4.28;;;;;;;16.00;96.38;101301.16;5028469;28;19967;-74
2021/07/20 03:17:30;;;;;;;8.00;4.20;;;;;;;16.04;96.43;101303.91;5018169;28;20041;-75
2021/07/20 03:19:58;;;;;;;8.38;4.07;;;;;;;16.09;96.95;101304.31;5031989;28;20080;-75
2021/07/20 03:22:30;;;;;;;11.27;4.22;;;;;;;16.10;96.46;101303.16;5024162;28;20044;-75
2021/07/20 03:25:04;;;;;;;9.63;4.35;;;;;;;16.15;96.83;101310.19;5027895;28;20401;-74
2021/07/20 03:27:35;;;;;;;6.22;4.10;;;;;;;16.08;97.26;101310.94;5028247;28;20037;-75
2021/07/20 03:30:10;;;;;;;10.82;4.30;;;;;;;16.21;97.31;101320.34;5001969;28;20037;-75
2021/07/20 03:32:38;;;;;;;7.45;4.07;;;;;;;16.28;96.98;101311.44;5009926;28;20163;-75
2021/07/20 03:35:06;;;;;;;10.00;3.92;;;;;;;16.34;96.93;101314.63;5028531;28;20031;-74
2021/07/20 03:37:33;;;;;;;5.95;3.97;;;;;;;16.31;97.05;101315.38;5039307;28;20037;-74
2021/07/20 03:40:03;;;;;;;9.15;4.03;;;;;;;16.39;96.46;101311.53;5004296;28;20048;-75
2021/07/20 03:42:33;;;;;;;9.10;4.35;;;;;;;16.42;96.33;101324.38;5026245;28;20124;-75
2021/07/20 03:44:59;;;;;;;8.85;4.45;;;;;;;16.52;95.82;101320.97;5029999;28;20472;-75
2021/07/20 03:47:26;;;;;;;10.20;4.63;;;;;;;16.53;96.33;101320.59;5014717;28;20041;-75
2021/07/20 03:49:55;;;;;;;13.55;4.40;;;;;;;16.52;96.27;101315.53;5018754;28;20025;-75
2021/07/20 03:52:23;;;;;;;9.80;4.43;;;;;;;16.54;96.77;101316.75;5013437;28;20113;-75
2021/07/20 03:54:50;;;;;;;9.68;4.70;;;;;;;16.60;96.54;101319.88;5026300;28;20022;-75
2021/07/20 03:57:21;;;;;;;9.02;4.38;;;;;;;16.63;96.12;101325.34;5029249;28;20052;-75
2021/07/20 03:59:51;;;;;;;6.60;4.63;;;;;;;16.65;95.21;101328.47;5018674;28;20125;-75
2021/07/20 04:02:47;;;;;;;8.00;4.40;;;;;;;16.66;95.44;101331.97;5022919;28;20804;-75
2021/07/20 04:05:20;;;;;;;8.90;4.13;;;;;;;16.58;96.33;101330.34;5022551;28;20034;-75
2021/07/20 04:07:49;;;;;;;10.13;4.50;;;;;;;16.66;95.18;101326.53;5022816;28;20057;-75
2021/07/20 04:10:16;;;;;;;10.40;4.03;;;;;;;16.63;94.92;101321.81;5028666;28;20037;-75
2021/07/20 04:13:05;;;;;;;10.40;4.57;;;;;;;16.64;95.11;101323.41;5024658;28;20108;-75
2021/07/20 04:16:01;;;;;;;10.23;4.32;;;;;;;16.58;95.20;101333.84;5014667;28;20030;-75
2021/07/20 04:18:29;;;;;;;12.23;4.70;;;;;;;16.65;95.79;101330.38;5016645;28;20120;-74
2021/07/20 04:20:57;;;;;;;7.82;4.05;;;;;;;16.72;94.81;101328.53;5022065;28;20790;-75
2021/07/20 04:23:24;;;;;;;9.25;4.50;;;;;;;16.70;94.45;101328.13;5023883;28;20076;-75
2021/07/20 04:26:13;;;;;;;8.05;4.20;;;;;;;16.67;94.78;101326.13;5024762;28;20049;-75
2021/07/20 04:28:41;;;;;;;9.40;4.50;;;;;;;16.71;94.65;101326.94;5027024;28;20039;-75
2021/07/20 04:31:12;;;;;;;9.43;4.40;;;;;;;16.72;94.92;101327.72;5018439;28;20079;-75
2021/07/20 04:33:39;;;;;;;13.50;4.13;;;;;;;16.79;94.62;101341.38;5025347;28;20584;-75
2021/07/20 04:36:28;;;;;;;11.75;4.32;;;;;;;16.80;94.80;101337.50;5007292;28;20041;-75
2021/07/20 04:39:03;;;;;;;7.45;4.00;;;;;;;16.82;95.19;101338.66;5021805;28;20033;-75
2021/07/20 04:41:30;;;;;;;8.18;4.20;;;;;;;16.79;95.46;101339.44;5013799;28;20030;-75
2021/07/20 04:43:57;;;;;;;6.25;4.07;;;;;;;16.86;94.88;101350.34;5012147;28;20037;-75
2021/07/20 04:46:34;;;;;;;10.43;3.70;;;;;;;16.95;93.65;101347.31;5030602;28;20490;-75
2021/07/20 04:49:05;;;;;;;10.65;4.28;;;;;;;16.93;93.32;101344.97;5007159;28;20109;-74
2021/07/20 04:51:37;;;;;;;7.38;4.22;;;;;;;17.03;92.94;101354.34;5017835;28;20028;-75
2021/07/20 04:54:04;;;;;;;12.02;4.07;;;;;;;17.02;93.35;101358.22;5028594;28;20125;-75
2021/07/20 04:56:31;;;;;;;6.25;3.92;;;;;;;17.15;92.64;101354.00;5012102;28;20034;-75
2021/07/20 04:58:58;;;;;;;5.57;3.50;;;;;;;17.19;92.71;101351.31;5020419;28;20033;-75
2021/07/20 05:01:24;;;;;;;8.15;4.20;;;;;;;17.27;92.37;101356.41;5038047;28;20040;-75
2021/07/20 05:03:56;;;;;;;10.07;4.18;;;;;;;17.31;92.59;101365.38;5025433;28;20061;-74
2021/07/20 05:06:28;;;;;;;11.35;4.03;;;;;;;17.34;92.34;101359.16;5031474;28;20033;-75
2021/07/20 05:08:55;;;;;;;12.65;4.03;;;;;;;17.42;91.99;101362.69;5031884;28;20517;-75
2021/07/20 05:11:22;;;;;;;7.13;4.05;;;;;;;17.41;92.17;101361.13;5020795;28;20037;-75
2021/07/20 05:13:50;;;;;;;11.18;3.88;;;;;;;17.47;91.88;101368.56;5025975;28;20124;-74
2021/07/20 05:16:21;;;;;;;11.85;3.95;;;;;;;17.49;92.02;101368.97;5033053;28;20481;-75
2021/07/20 05:18:53;;;;;;;9.60;3.33;;;;;;;17.68;90.15;101376.03;5029291;28;20036;-74
2021/07/20 05:21:44;;;;;;;;;;;;;;;17.43;90.98;101373.19;5022744;28;20049;-75
2021/07/20 05:24:12;;;;;;;10.02;3.38;;;;;;;17.61;90.57;101370.56;5026605;28;19924;-75
2021/07/20 05:26:54;;;;;;;11.57;3.50;;;;;;;17.69;89.59;101374.88;5017844;28;20064;-75
2021/07/20 05:29:21;;;;;;;11.40;4.05;;;;;;;17.69;89.31;101378.38;5029653;28;20056;-74
2021/07/20 05:32:09;;;;;;;9.00;3.30;;;;;;;17.70;89.72;101382.66;5024183;28;20430;-75
2021/07/20 05:34:35;;;;;;;6.93;3.30;;;;;;;17.81;88.86;101380.75;5022130;28;20037;-75
2021/07/20 05:37:01;;;;;;;9.40;3.35;;;;;;;17.81;88.92;101380.75;5027867;28;20037;-75
2021/07/20 05:39:37;;;;;;;9.23;3.47;;;;;;;17.81;88.97;101386.19;5030757;28;20022;-75
2021/07/20 05:42:11;;;;;;;11.07;3.63;;;;;;;17.93;88.23;101382.31;5024410;28;20499;-75
2021/07/20 05:44:40;;;;;;;8.38;3.60;;;;;;;17.86;87.99;101385.03;5029153;28;20033;-75
2021/07/20 05:47:08;;;;;;;9.00;3.05;;;;;;;17.97;86.63;101380.38;5032340;28;20025;-75
2021/07/20 05:49:35;;;;;;;6.63;3.05;;;;;;;17.80;88.12;101375.69;5030572;28;20029;-75
2021/07/20 05:52:04;;;;;;;10.68;3.50;;;;;;;17.81;89.25;101379.97;5015516;28;20065;-75
2021/07/20 05:54:30;;;;;;;8.98;3.63;;;;;;;17.87;88.33;101376.47;5024692;28;20075;-75
2021/07/20 05:57:09;;;;;;;7.53;3.50;;;;;;;17.88;87.54;101377.25;5022914;28;20081;-75
2021/07/20 05:59:44;;;;;;;7.25;3.17;;;;;;;17.88;88.16;101375.34;5024220;28;20044;-75
2021/07/20 06:02:17;;;;;;;9.70;3.40;;;;;;;17.96;87.60;101376.13;5032566;28;20053;-75
2021/07/20 06:04:44;;;;;;;8.07;3.22;;;;;;;18.04;86.76;101375.72;5029280;28;20122;-75
2021/07/20 06:07:10;;;;;;;8.77;3.13;;;;;;;18.07;87.15;101376.91;5024145;28;20033;-75
2021/07/20 06:09:36;;;;;;;8.32;2.95;;;;;;;18.19;87.01;101375.75;5024959;28;20076;-75
2021/07/20 06:12:08;;;;;;;8.45;3.10;;;;;;;18.25;87.24;101375.00;5032158;28;20117;-75
2021/07/20 06:14:35;;;;;;;11.90;2.97;;;;;;;18.37;86.49;101382.00;5025766;28;20037;-74
2021/07/20 06:17:01;;;;;;;9.20;3.10;;;;;;;18.45;86.74;101380.84;5021437;28;20496;-75
2021/07/20 06:19:26;;;;;;;7.07;3.22;;;;;;;18.57;85.69;101385.91;5031696;28;20132;-75
2021/07/20 06:21:54;;;;;;;8.50;3.03;;;;;;;18.82;84.33;101382.00;5032024;28;20033;-75
2021/07/20 06:24:23;;;;;;;7.88;3.00;;;;;;;19.11;83.81;101393.63;5029197;28;20037;-75
2021/07/20 06:26:50;;;;;;;8.75;3.00;;;;;;;19.50;81.88;101388.84;5030638;28;20029;-75
2021/07/20 06:29:17;;;;;;;7.03;2.60;;;;;;;19.86;80.00;101389.44;5031358;28;20083;-75
2021/07/20 06:31:44;;;;;;;6.13;2.55;;;;;;;19.90;78.92;101384.72;5045018;28;20064;-75
2021/07/20 06:34:15;;;;;;;4.55;2.05;;;;;;;20.08;78.25;101390.09;5025359;28;20038;-75
2021/07/20 06:36:44;;;;;;;5.43;2.25;;;;;;;20.25;77.68;101383.75;5031539;28;20047;-75
2021/07/20 06:39:12;;;;;;;7.70;2.25;;;;;;;20.62;75.54;101394.78;5031950;28;20021;-75
2021/07/20 06:41:38;;;;;;;5.88;2.42;;;;;;;20.71;75.67;101388.84;5029942;28;20136;-75
2021/07/20 06:44:05;;;;;;;5.80;2.20;;;;;;;20.80;75.04;101392.66;5031318;28;20109;-75
2021/07/20 06:46:32;;;;;;;5.65;2.25;;;;;;;20.66;74.38;101384.56;5030883;28;20027;-74
2021/07/20 06:48:59;;;;;;;8.15;2.42;;;;;;;20.84;73.89;101387.94;5024800;28;20034;-75
2021/07/20 06:51:28;;;;;;;6.97;2.38;;;;;;;20.99;74.45;101394.81;5027820;28;20381;-75
2021/07/20 06:53:54;;;;;;;6.53;2.45;;;;;;;20.96;74.30;101389.38;5029338;28;20091;-75
2021/07/20 06:56:36;;;;;;;3.97;2.00;;;;;;;21.06;73.76;101389.28;5029748;28;20029;-75
2021/07/20 06:59:03;;;;;;;6.95;2.15;;;;;;;21.30;73.22;101395.69;5021191;28;20041;-75
2021/07/20 07:01:31;;;;;;;6.15;1.95;;;;;;;21.50;71.76;101396.63;5030842;28;20036;-75
2021/07/20 07:04:12;;;;;;;4.15;2.30;;;;;;;21.48;70.56;101397.03;5029463;28;20039;-75
2021/07/20 07:06:41;;;;;;;6.57;2.40;;;;;;;21.49;69.29;101393.09;5027330;28;20095;-75
2021/07/20 07:09:08;;;;;;;6.95;2.30;;;;;;;21.52;69.05;101386.78;5020636;28;20045;-75
2021/07/20 07:11:35;;;;;;;6.50;2.78;;;;;;;21.63;69.99;101388.59;5030989;28;20045;-75
2021/07/20 07:14:01;;;;;;;4.93;2.13;;;;;;;21.65;69.16;101387.00;5028997;28;20041;-75
2021/07/20 07:16:27;;;;;;;5.35;2.65;;;;;;;21.63;70.28;101396.84;5030124;28;20026;-75
2021/07/20 07:18:54;;;;;;;3.80;2.72;;;;;;;21.75;68.13;101386.09;5030601;28;20037;-75
2021/07/20 07:21:21;;;;;;;7.13;3.10;;;;;;;21.77;68.06;101393.91;5031084;28;20057;-75
2021/07/20 07:23:50;;;;;;;5.97;2.60;;;;;;;21.78;68.07;101401.72;5029228;28;20033;-75
2021/07/20 07:26:16;;;;;;;5.53;3.40;;;;;;;21.67;67.01;101400.31;5033335;28;20041;-75
2021/07/20 07:28:48;;;;;;;5.53;3.17;;;;;;;21.55;66.54;101416.13;5030805;28;20060;-75
2021/07/20 07:31:15;;;;;;;7.70;2.65;;;;;;;21.43;67.14;101408.44;5030625;28;20038;-75
2021/07/20 07:33:41;;;;;;;6.55;3.05;;;;;;;21.22;69.02;101405.16;5024738;28;20037;-75
2021/07/20 07:36:10;;;;;;;5.82;3.58;;;;;;;21.28;67.69;101403.53;5027927;28;20050;-75
2021/07/20 07:38:40;;;;;;;7.47;3.50;;;;;;;21.19;67.56;101398.56;5030328;28;20053;-75
2021/07/20 07:41:06;;;;;;;7.10;3.47;;;;;;;21.13;68.30;101400.19;5028468;28;20075;-74
2021/07/20 07:43:34;;;;;;;8.20;3.42;;;;;;;21.36;68.71;101402.25;5030684;28;20091;-75
2021/07/20 07:46:02;;;;;;;6.72;3.45;;;;;;;21.63;68.70;101403.09;5030023;28;20339;-75
2021/07/20 07:48:28;;;;;;;6.65;3.83;;;;;;;21.91;66.83;101399.25;5029726;28;20116;-75
2021/07/20 07:50:57;;;;;;;7.90;3.90;;;;;;;22.21;66.18;101401.91;5025156;28;20121;-75
2021/07/20 07:53:24;;;;;;;9.10;4.00;;;;;;;22.38;66.56;101396.16;5030598;28;20083;-75
2021/07/20 07:55:51;;;;;;;9.40;5.13;;;;;;;22.62;66.09;101396.19;5029436;28;20033;-75
2021/07/20 07:58:17;;;;;;;8.52;3.92;;;;;;;22.70;61.78;101389.38;5026554;28;20117;-74
2021/07/20 08:00:46;;;;;;;7.85;4.40;;;;;;;22.57;63.20;101396.69;5019711;28;20056;-74
2021/07/20 08:03:15;;;;;;;9.18;4.30;;;;;;;22.52;61.85;101392.41;5030669;28;20029;-75
2021/07/20 08:05:44;;;;;;;9.18;4.05;;;;;;;22.50;62.88;101397.53;5028660;28;20037;-75
2021/07/20 08:08:11;;;;;;;11.80;4.50;;;;;;;22.41;64.72;101400.03;5020658;28;20053;-75
2021/07/20 08:10:37;;;;;;;10.95;4.90;;;;;;;22.21;64.54;101399.97;5030329;28;20108;-75
2021/07/20 08:13:05;;;;;;;7.53;3.90;;;;;;;22.31;64.50;101395.50;5030616;28;20033;-74
2021/07/20 08:15:31;;;;;;;7.07;4.15;;;;;;;22.19;63.52;101396.06;5045139;28;20135;-75
2021/07/20 08:17:58;;;;;;;8.85;4.20;;;;;;;22.35;65.06;101396.22;5031842;28;20434;-75
2021/07/20 08:20:24;;;;;;;6.97;4.43;;;;;;;22.50;63.17;101394.00;5034310;28;20490;-74
2021/07/20 08:22:50;;;;;;;8.75;4.57;;;;;;;22.75;63.42;101389.66;5049918;28;20029;-74
2021/07/20 08:25:34;;;;;;;8.25;4.57;;;;;;;22.89;61.60;101400.41;5032539;28;20033;-74
2021/07/20 08:28:08;;;;;;;7.82;4.80;;;;;;;23.05;60.78;101391.47;5036424;28;20071;-75
2021/07/20 08:30:42;;;;;;;9.38;4.63;;;;;;;23.21;61.19;101389.56;5049425;28;20061;-75
2021/07/20 08:33:12;;;;;;;7.82;3.90;;;;;;;23.36;60.66;101392.06;5034193;28;20486;-75
2021/07/20 08:35:40;;;;;;;5.82;3.95;;;;;;;23.70;61.00;101393.31;5022423;28;20046;-75
2021/07/20 08:38:09;;;;;;;8.23;4.22;;;;;;;23.67;60.57;101379.63;5033057;28;20498;-75
2021/07/20 08:40:49;;;;;;;6.40;3.92;;;;;;;23.88;58.22;101390.94;5031830;28;20037;-75
2021/07/20 08:43:37;;;;;;;7.97;4.20;;;;;;;24.03;56.71;101388.66;5034119;28;20026;-75
2021/07/20 08:46:25;;;;;;;9.10;4.10;;;;;;;24.11;57.03;101401.06;5031436;28;20037;-75
2021/07/20 08:49:25;;;;;;;9.05;4.88;;;;;;;24.13;57.56;101398.66;5033395;28;20053;-75
2021/07/20 08:51:50;;;;;;;8.00;4.57;;;;;;;24.29;58.18;101393.16;5032556;28;20037;-75
2021/07/20 08:54:35;;;;;;;7.97;4.38;;;;;;;24.46;55.82;101391.16;5025942;28;20178;-75
2021/07/20 08:57:04;;;;;;;7.90;4.30;;;;;;;24.50;54.66;101400.13;5033250;28;20508;-75
2021/07/20 08:59:51;;;;;;;6.10;4.07;;;;;;;24.18;52.72;101406.41;5033119;28;20494;-75
2021/07/20 09:02:45;;;;;;;7.30;4.35;;;;;;;23.94;54.75;101407.72;5026583;28;20052;-75
2021/07/20 09:05:16;;;;;;;7.32;4.30;;;;;;;23.76;55.94;101401.84;5014664;28;20087;-75
2021/07/20 09:08:13;;;;;;;8.57;4.70;;;;;;;23.68;56.92;101408.69;5033317;28;20087;-75
2021/07/20 09:10:45;;;;;;;11.85;4.55;;;;;;;23.73;55.93;101408.19;5040452;28;20079;-75
2021/07/20 09:13:17;;;;;;;6.00;4.25;;;;;;;23.44;55.82;101410.00;5028288;28;20037;-75
2021/07/20 09:15:54;;;;;;;7.20;4.40;;;;;;;23.34;56.03;101410.97;5032489;28;20044;-75
2021/07/20 09:18:40;;;;;;;9.50;4.40;;;;;;;23.52;57.24;101409.41;5033207;28;20514;-75
2021/07/20 09:21:07;;;;;;;9.10;4.85;;;;;;;23.87;57.00;101405.13;5040243;28;20483;-75
2021/07/20 09:23:38;;;;;;;7.38;4.05;;;;;;;24.22;54.82;101409.84;5033046;28;20462;-75
2021/07/20 09:26:07;;;;;;;;;;;;;;;24.29;54.25;101409.69;5032951;28;20033;-75
2021/07/20 09:28:41;;;;;;;7.90;4.25;;;;;;;24.60;53.06;101404.59;5026998;28;20280;-75
2021/07/20 09:31:16;;;;;;;7.40;4.25;;;;;;;24.68;52.25;101403.97;5031235;28;20041;-75
2021/07/20 09:33:51;;;;;;;6.78;4.47;;;;;;;24.94;52.20;101399.38;5032495;28;20042;-75
2021/07/20 09:36:25;;;;;;;9.32;4.72;;;;;;;25.19;52.76;101402.25;5032267;28;20312;-74
2021/07/20 09:39:30;;;;;;;9.32;4.22;;;;;;;25.28;52.46;101407.13;5025807;28;20501;-75
2021/07/20 09:42:06;;;;;;;8.75;4.20;;;;;;;25.21;51.89;101408.09;5032775;28;20425;-75
2021/07/20 09:44:51;;;;;;;11.00;4.50;;;;;;;25.05;53.11;101421.94;5032452;28;20108;-75
2021/07/20 09:47:40;;;;;;;7.55;4.53;;;;;;;24.66;51.89;101419.41;5028820;28;20041;-75
2021/07/20 09:50:08;;;;;;;7.85;4.00;;;;;;;24.74;53.59;101418.81;5032542;28;20075;-75
2021/07/20 09:52:42;;;;;;;8.68;4.40;;;;;;;24.66;54.17;101427.69;5032700;28;20041;-75
2021/07/20 09:55:20;;;;;;;9.05;4.45;;;;;;;24.49;53.43;101420.59;5018266;28;20043;-75
2021/07/20 09:58:22;;;;;;;6.70;3.78;;;;;;;24.24;52.63;101412.16;5023363;28;20046;-75
2021/07/20 10:01:14;;;;;;;10.00;4.15;;;;;;;24.47;52.54;101414.75;5023188;28;20551;-75
2021/07/20 10:03:52;;;;;;;6.70;4.10;;;;;;;24.27;54.71;101409.34;5032039;28;20156;-75
2021/07/20 10:06:27;;;;;;;9.27;4.57;;;;;;;24.34;53.42;101422.16;5030746;28;20033;-75
2021/07/20 10:09:27;;;;;;;5.80;3.90;;;;;;;24.17;54.28;101419.41;5027438;28;20120;-75
2021/07/20 10:12:10;;;;;;;6.75;4.38;;;;;;;24.04;54.50;101420.50;5011135;28;20052;-75
2021/07/20 10:15:05;;;;;;;9.40;4.43;;;;;;;24.18;53.76;101420.16;5031854;28;20057;-75
2021/07/20 10:17:36;;;;;;;7.28;3.97;;;;;;;24.12;54.41;101421.88;5021371;28;20060;-74
2021/07/20 10:20:11;;;;;;;7.28;4.20;;;;;;;24.13;53.32;101418.72;5047573;28;20044;-74
2021/07/20 10:22:56;;;;;;;9.57;4.55;;;;;;;24.00;53.23;101414.28;5031977;28;20060;-75
2021/07/20 10:25:37;;;;;;;9.20;4.38;;;;;;;24.11;54.35;101412.06;5027015;28;20037;-74
2021/07/20 10:28:10;;;;;;;8.47;4.50;;;;;;;24.30;53.09;101408.47;5032201;28;20044;-75
2021/07/20 10:30:39;;;;;;;5.97;3.58;;;;;;;24.58;56.14;101401.50;5031640;28;20025;-75
2021/07/20 10:33:14;;;;;;;9.30;4.88;;;;;;;24.92;54.94;101399.06;5031169;28;20482;-75
2021/07/20 10:35:48;;;;;;;8.77;4.38;;;;;;;25.30;54.18;101407.47;5025074;28;20120;-75
2021/07/20 10:38:30;;;;;;;6.72;4.40;;;;;;;25.47;51.03;101390.44;5019154;28;20064;-74
2021/07/20 10:40:57;;;;;;;5.57;3.75;;;;;;;25.44;50.35;101398.81;5031260;28;20486;-74
2021/07/20 10:43:34;;;;;;;8.18;4.45;;;;;;;25.28;51.92;101394.09;5043897;28;20461;-75
2021/07/20 10:46:04;;;;;;;8.82;4.18;;;;;;;25.41;52.62;101394.19;5025110;28;20394;-75
2021/07/20 10:48:33;;;;;;;5.55;3.97;;;;;;;25.69;51.61;101393.31;5030141;28;20029;-75
2021/07/20 10:51:08;;;;;;;7.03;3.70;;;;;;;26.04;50.45;101389.47;5045621;28;20064;-74
2021/07/20 10:53:41;;;;;;;7.38;4.43;;;;;;;26.31;50.30;101380.75;5034084;28;20034;-74
2021/07/20 10:56:17;;;;;;;9.80;4.55;;;;;;;26.68;49.48;101375.13;5030979;28;20520;-75
2021/07/20 10:58:51;;;;;;;6.57;4.10;;;;;;;26.79;48.20;101374.78;5031534;28;20037;-75
2021/07/20 11:01:22;;;;;;;7.10;3.88;;;;;;;26.87;49.79;101372.56;5022023;28;20128;-75
2021/07/20 11:03:56;;;;;;;5.72;3.70;;;;;;;26.99;48.45;101366.19;5031136;28;20033;-75
2021/07/20 11:06:23;;;;;;;6.65;3.97;;;;;;;27.32;48.79;101372.88;5030779;28;20099;-74
2021/07/20 11:08:53;;;;;;;6.85;3.67;;;;;;;27.52;47.59;101368.56;5041070;28;20064;-75
2021/07/20 11:11:24;;;;;;;8.18;3.80;;;;;;;27.48;48.46;101362.41;5024302;28;20033;-74
2021/07/20 11:13:51;;;;;;;;;;;;;;;27.06;47.11;101371.47;5031621;28;20086;-75
2021/07/20 11:16:18;;;;;;;6.30;4.00;;;;;;;26.80;47.67;101365.28;5030459;28;20015;-75
2021/07/20 11:18:46;;;;;;;5.85;3.85;;;;;;;26.59;48.44;101366.00;5019175;28;20705;-75
2021/07/20 11:21:15;;;;;;;7.00;3.90;;;;;;;26.27;47.99;101356.00;5029710;28;20110;-75
2021/07/20 11:23:44;;;;;;;5.00;3.63;;;;;;;26.13;49.92;101364.75;5030829;28;20030;-75
2021/07/20 11:26:10;;;;;;;5.78;3.95;;;;;;;25.84;50.13;101355.81;5028644;28;20087;-75
2021/07/20 11:28:38;;;;;;;6.95;4.10;;;;;;;25.99;51.42;101367.16;5046263;28;20037;-75
2021/07/20 11:31:09;;;;;;;6.28;3.70;;;;;;;25.96;50.50;101373.59;5029957;28;20033;-75
2021/07/20 11:33:39;;;;;;;7.00;3.97;;;;;;;25.88;49.36;101364.72;5045077;28;20091;-74
2021/07/20 11:36:07;;;;;;;6.97;4.30;;;;;;;25.68;49.58;101353.94;5030326;28;20091;-75
2021/07/20 11:38:35;;;;;;;7.68;3.80;;;;;;;25.81;50.67;101357.47;5029690;28;20048;-75
2021/07/20 11:41:09;;;;;;;4.95;3.75;;;;;;;25.86;51.03;101350.63;5028413;28;20546;-74
2021/07/20 11:43:50;;;;;;;5.85;3.80;;;;;;;25.67;51.34;101363.41;5019971;28;20530;-74
2021/07/20 11:46:19;;;;;;;7.43;4.32;;;;;;;25.49;51.91;101359.66;5012122;28;20037;-74
2021/07/20 11:48:57;;;;;;;7.63;4.30;;;;;;;25.50;53.21;101361.19;5030136;28;20049;-74